createdAt,value
2023-02-19T00:00:19.662Z,99109.00
2023-02-19T00:02:50.550Z,99117.00
2023-02-19T00:05:19.868Z,99116.00
2023-02-19T00:07:49.129Z,99125.00
2023-02-19T00:10:18.415Z,99128.00
2023-02-19T00:12:47.911Z,99128.00
2023-02-19T00:15:17.109Z,99134.00
2023-02-19T00:17:46.198Z,99144.00
2023-02-19T00:20:15.322Z,99141.00
2023-02-19T00:22:44.550Z,99134.00
2023-02-19T00:25:13.645Z,99146.00
2023-02-19T00:27:42.769Z,99147.00
2023-02-19T00:30:12.969Z,99147.00
2023-02-19T00:32:42.325Z,99147.00
2023-02-19T00:35:11.443Z,99142.00
2023-02-19T00:37:40.600Z,99145.00
2023-02-19T00:40:10.352Z,99146.00
2023-02-19T00:42:39.533Z,99144.00
2023-02-19T00:45:09.270Z,99153.00
2023-02-19T00:47:38.357Z,99151.00
2023-02-19T00:50:07.663Z,99152.00
2023-02-19T00:52:37.293Z,99156.00
2023-02-19T00:55:06.900Z,99162.00
2023-02-19T00:57:36.023Z,99172.00
2023-02-19T01:00:07.616Z,99187.00
2023-02-19T01:02:36.713Z,99183.00
2023-02-19T01:09:15.213Z,99182.00
2023-02-19T01:11:44.398Z,99184.00
2023-02-19T01:14:14.819Z,99185.00
2023-02-19T01:16:44.139Z,99185.00
2023-02-19T01:19:13.418Z,99192.00
2023-02-19T01:21:43.111Z,99195.00
2023-02-19T01:24:12.409Z,99189.00
2023-02-19T01:26:41.919Z,99198.00
2023-02-19T01:29:11.361Z,99202.00
2023-02-19T01:31:43.234Z,99203.00
2023-02-19T01:34:14.049Z,99197.00
2023-02-19T01:36:43.363Z,99207.00
2023-02-19T01:39:13.125Z,99197.00
2023-02-19T01:41:43.785Z,99202.00
2023-02-19T01:44:20.480Z,99198.00
2023-02-19T01:46:54.187Z,99199.00
2023-02-19T01:49:36.206Z,99201.00
2023-02-19T01:52:34.387Z,99208.00
2023-02-19T01:55:08.060Z,99214.00
2023-02-19T01:57:46.406Z,99216.00
2023-02-19T02:00:18.680Z,99220.00
2023-02-19T02:02:53.880Z,99228.00
2023-02-19T02:05:54.136Z,99223.00
2023-02-19T02:08:42.122Z,99227.00
2023-02-19T02:11:11.673Z,99237.00
2023-02-19T02:13:42.190Z,99244.00
2023-02-19T02:16:28.665Z,99240.00
2023-02-19T02:19:30.924Z,99241.00
2023-02-19T02:22:14.037Z,99250.00
2023-02-19T02:25:35.495Z,99248.00
2023-02-19T02:28:43.251Z,99252.00
2023-02-19T02:31:18.550Z,99254.00
2023-02-19T02:33:59.868Z,99256.00
2023-02-19T02:36:40.444Z,99254.00
2023-02-19T02:39:16.665Z,99255.00
2023-02-19T02:42:14.163Z,99255.00
2023-02-19T02:45:07.845Z,99261.00
2023-02-19T02:47:49.980Z,99262.00
2023-02-19T02:50:33.977Z,99250.00
2023-02-19T02:53:30.974Z,99260.00
2023-02-19T02:56:01.469Z,99253.00
2023-02-19T02:58:32.782Z,99254.00
2023-02-19T03:01:47.503Z,99249.00
2023-02-19T03:05:04.449Z,99249.00
2023-02-19T03:07:53.141Z,99247.00
2023-02-19T03:11:25.845Z,99248.00
2023-02-19T03:14:27.661Z,99249.00
2023-02-19T03:17:30.029Z,99251.00
2023-02-19T03:20:04.673Z,99246.00
2023-02-19T03:22:39.257Z,99238.00
2023-02-19T03:25:45.050Z,99240.00
2023-02-19T03:28:18.616Z,99236.00
2023-02-19T03:30:55.185Z,99245.00
2023-02-19T03:33:31.810Z,99244.00
2023-02-19T03:36:07.784Z,99244.00
2023-02-19T03:38:58.549Z,99230.00
2023-02-19T03:41:53.852Z,99227.00
2023-02-19T03:45:00.900Z,99232.00
2023-02-19T03:47:45.894Z,99219.00
2023-02-19T03:50:51.195Z,99216.00
2023-02-19T03:53:39.277Z,99206.00
2023-02-19T03:56:31.728Z,99198.00
2023-02-19T03:59:42.583Z,99200.00
2023-02-19T04:02:29.055Z,99192.00
2023-02-19T04:05:21.381Z,99180.00
2023-02-19T04:07:56.638Z,99180.00
2023-02-19T04:10:27.278Z,99179.00
2023-02-19T04:13:08.377Z,99171.00
2023-02-19T04:15:42.296Z,99171.00
2023-02-19T04:18:28.484Z,99169.00
2023-02-19T04:21:01.506Z,99161.00
2023-02-19T04:23:41.010Z,99165.00
2023-02-19T04:26:12.048Z,99161.00
2023-02-19T04:28:44.006Z,99146.00
2023-02-19T04:31:13.841Z,99146.00
2023-02-19T04:33:43.223Z,99145.00
2023-02-19T04:36:13.329Z,99146.00
2023-02-19T04:38:42.452Z,99134.00
2023-02-19T04:41:12.524Z,99125.00
2023-02-19T04:43:41.989Z,99124.00
2023-02-19T04:46:11.263Z,99123.00
2023-02-19T04:48:40.405Z,99114.00
2023-02-19T04:51:11.309Z,99108.00
2023-02-19T04:53:40.865Z,99102.00
2023-02-19T04:56:17.852Z,99100.00
2023-02-19T04:58:49.136Z,99097.00
2023-02-19T05:01:20.593Z,99095.00
2023-02-19T05:03:52.798Z,99085.00
2023-02-19T05:06:21.948Z,99081.00
2023-02-19T05:08:51.138Z,99070.00
2023-02-19T05:11:20.373Z,99072.00
2023-02-19T05:13:51.577Z,99068.00
2023-02-19T05:16:20.941Z,99063.00
2023-02-19T05:18:50.134Z,99054.00
2023-02-19T05:21:19.394Z,99047.00
2023-02-19T05:23:48.578Z,99035.00
2023-02-19T05:26:22.639Z,99041.00
2023-02-19T05:28:54.621Z,99026.00
2023-02-19T05:31:24.197Z,99030.00
2023-02-19T05:33:54.127Z,99026.00
2023-02-19T05:36:24.230Z,99017.00
2023-02-19T05:38:58.901Z,99011.00
2023-02-19T05:41:32.017Z,99003.00
2023-02-19T05:44:01.332Z,99004.00
2023-02-19T05:46:32.543Z,98996.00
2023-02-19T05:49:02.087Z,98992.00
2023-02-19T05:51:31.801Z,98986.00
2023-02-19T05:54:01.017Z,98980.00
2023-02-19T05:56:42.510Z,98984.00
2023-02-19T05:59:24.820Z,98985.00
2023-02-19T06:01:56.446Z,98984.00
2023-02-19T06:04:25.724Z,98972.00
2023-02-19T06:06:55.096Z,98969.00
2023-02-19T06:09:24.379Z,98970.00
2023-02-19T06:11:53.576Z,98962.00
2023-02-19T06:14:23.309Z,98952.00
2023-02-19T06:16:52.465Z,98951.00
2023-02-19T06:19:21.693Z,98942.00
2023-02-19T06:21:52.616Z,98937.00
2023-02-19T06:24:21.968Z,98939.00
2023-02-19T06:26:51.158Z,98933.00
2023-02-19T06:29:20.354Z,98937.00
2023-02-19T06:31:49.665Z,98930.00
2023-02-19T06:34:19.255Z,98920.00
2023-02-19T06:36:50.838Z,98927.00
2023-02-19T06:39:20.004Z,98919.00
2023-02-19T06:41:49.164Z,98915.00
2023-02-19T06:44:18.494Z,98910.00
2023-02-19T06:46:47.778Z,98905.00
2023-02-19T06:49:18.787Z,98900.00
2023-02-19T06:51:48.100Z,98899.00
2023-02-19T06:54:17.227Z,98893.00
2023-02-19T06:56:47.205Z,98885.00
2023-02-19T06:59:18.225Z,98888.00
2023-02-19T07:01:47.803Z,98881.00
2023-02-19T07:04:17.063Z,98875.00
2023-02-19T07:06:46.658Z,98877.00
2023-02-19T07:09:15.844Z,98856.00
2023-02-19T07:11:44.960Z,98855.00
2023-02-19T07:14:18.918Z,98857.00
2023-02-19T07:16:49.426Z,98848.00
2023-02-19T07:19:18.669Z,98843.00
2023-02-19T07:21:47.954Z,98831.00
2023-02-19T07:24:17.350Z,98826.00
2023-02-19T07:26:46.509Z,98829.00
2023-02-19T07:29:15.703Z,98831.00
2023-02-19T07:31:45.689Z,98824.00
2023-02-19T07:34:14.885Z,98822.00
2023-02-19T07:36:44.119Z,98826.00
2023-02-19T07:39:16.913Z,98819.00
2023-02-19T07:41:46.129Z,98818.00
2023-02-19T07:44:17.496Z,98812.00
2023-02-19T07:46:46.952Z,98802.00
2023-02-19T07:49:16.146Z,98794.00
2023-02-19T07:51:45.953Z,98794.00
2023-02-19T07:54:15.190Z,98796.00
2023-02-19T07:56:44.653Z,98796.00
2023-02-19T07:59:13.859Z,98794.00
2023-02-19T08:02:01.434Z,98793.00
2023-02-19T08:04:30.721Z,98793.00
2023-02-19T08:06:59.906Z,98785.00
2023-02-19T08:09:29.115Z,98786.00
2023-02-19T08:12:16.489Z,98786.00
2023-02-19T08:14:46.360Z,98779.00
2023-02-19T08:17:15.674Z,98779.00
2023-02-19T08:19:45.089Z,98775.00
2023-02-19T08:22:17.222Z,98772.00
2023-02-19T08:24:46.685Z,98766.00
2023-02-19T08:27:15.865Z,98765.00
2023-02-19T08:29:45.075Z,98768.00
2023-02-19T08:32:14.998Z,98770.00
2023-02-19T08:34:44.245Z,98766.00
2023-02-19T08:37:13.409Z,98762.00
2023-02-19T08:39:42.662Z,98762.00
2023-02-19T08:42:11.845Z,98761.00
2023-02-19T08:44:41.013Z,98767.00
2023-02-19T08:47:10.296Z,98759.00
2023-02-19T08:49:39.524Z,98757.00
2023-02-19T08:52:08.744Z,98760.00
2023-02-19T08:54:38.111Z,98758.00
2023-02-19T08:57:07.373Z,98763.00
2023-02-19T08:59:36.614Z,98763.00
2023-02-19T09:02:05.928Z,98762.00
2023-02-19T09:04:35.086Z,98760.00
2023-02-19T09:07:08.511Z,98756.00
2023-02-19T09:09:40.059Z,98760.00
2023-02-19T09:12:14.474Z,98759.00
2023-02-19T09:14:44.451Z,98763.00
2023-02-19T09:17:14.294Z,98765.00
2023-02-19T09:19:43.572Z,98758.00
2023-02-19T09:22:12.757Z,98763.00
2023-02-19T09:24:41.985Z,98765.00
2023-02-19T09:27:15.976Z,98763.00
2023-02-19T09:29:45.265Z,98764.00
2023-02-19T09:32:16.223Z,98768.00
2023-02-19T09:34:46.769Z,98772.00
2023-02-19T09:37:15.943Z,98777.00
2023-02-19T09:39:45.153Z,98779.00
2023-02-19T09:42:30.251Z,98775.00
2023-02-19T09:45:03.016Z,98782.00
2023-02-19T09:47:36.140Z,98783.00
2023-02-19T09:50:11.096Z,98778.00
2023-02-19T09:52:56.420Z,98787.00
2023-02-19T09:55:38.961Z,98780.00
2023-02-19T09:58:36.663Z,98792.00
2023-02-19T10:01:10.299Z,98785.00
2023-02-19T10:03:48.049Z,98787.00
2023-02-19T10:06:30.864Z,98795.00
2023-02-19T10:09:24.849Z,98783.00
2023-02-19T10:11:56.837Z,98791.00
2023-02-19T10:14:46.444Z,98783.00
2023-02-19T10:17:35.526Z,98787.00
2023-02-19T10:20:05.528Z,98792.00
2023-02-19T10:22:39.297Z,98785.00
2023-02-19T10:25:09.071Z,98788.00
2023-02-19T10:27:38.318Z,98793.00
2023-02-19T10:30:14.149Z,98788.00
2023-02-19T10:33:10.956Z,98794.00
2023-02-19T10:36:05.890Z,98798.00
2023-02-19T10:38:48.136Z,98795.00
2023-02-19T10:41:24.518Z,98801.00
2023-02-19T10:43:55.770Z,98805.00
2023-02-19T10:46:30.881Z,98818.00
2023-02-19T10:49:31.625Z,98820.00
2023-02-19T10:52:27.014Z,98817.00
2023-02-19T10:55:16.092Z,98821.00
2023-02-19T10:57:45.757Z,98823.00
2023-02-19T11:00:17.944Z,98823.00
2023-02-19T11:02:47.759Z,98829.00
2023-02-19T11:05:24.205Z,98831.00
2023-02-19T11:07:58.247Z,98840.00
2023-02-19T11:10:57.005Z,98847.00
2023-02-19T11:13:39.088Z,98853.00
2023-02-19T11:16:08.851Z,98864.00
2023-02-19T11:18:38.852Z,98863.00
2023-02-19T11:21:24.313Z,98864.00
2023-02-19T11:23:53.634Z,98864.00
2023-02-19T11:26:32.972Z,98859.00
2023-02-19T11:29:19.167Z,98865.00
2023-02-19T11:31:48.582Z,98868.00
2023-02-19T11:34:25.859Z,98868.00
2023-02-19T11:37:30.233Z,98874.00
2023-02-19T11:39:59.422Z,98879.00
2023-02-19T11:42:46.519Z,98879.00
2023-02-19T11:45:36.621Z,98895.00
2023-02-19T11:49:09.527Z,98887.00
2023-02-19T11:52:08.601Z,98900.00
2023-02-19T11:55:15.220Z,98897.00
2023-02-19T11:58:09.338Z,98906.00
2023-02-19T12:01:02.815Z,98911.00
2023-02-19T12:04:18.475Z,98914.00
2023-02-19T12:07:01.828Z,98922.00
2023-02-19T12:10:10.600Z,98924.00
2023-02-19T12:13:22.505Z,98934.00
2023-02-19T12:16:13.233Z,98930.00
2023-02-19T12:19:28.861Z,98942.00
2023-02-19T12:22:27.613Z,98952.00
2023-02-19T12:25:29.968Z,98953.00
2023-02-19T12:28:36.197Z,98956.00
2023-02-19T12:31:13.076Z,98960.00
2023-02-19T12:34:18.131Z,98965.00
2023-02-19T12:37:45.557Z,98966.00
2023-02-19T12:40:40.638Z,98962.00
2023-02-19T12:43:25.005Z,98968.00
2023-02-19T12:46:24.475Z,98968.00
2023-02-19T12:49:14.999Z,98983.00
2023-02-19T12:52:10.563Z,98982.00
2023-02-19T12:54:55.980Z,98982.00
2023-02-19T12:57:38.379Z,98983.00
2023-02-19T13:00:44.949Z,98980.00
2023-02-19T13:03:31.762Z,98991.00
2023-02-19T13:06:26.480Z,98997.00
2023-02-19T13:09:22.831Z,99002.00
2023-02-19T13:12:15.858Z,99005.00
2023-02-19T13:14:53.821Z,99004.00
2023-02-19T13:17:53.486Z,99012.00
2023-02-19T13:20:33.568Z,99010.00
2023-02-19T13:23:38.743Z,99011.00
2023-02-19T13:27:01.433Z,99018.00
2023-02-19T13:30:10.613Z,99021.00
2023-02-19T13:33:08.453Z,99029.00
2023-02-19T13:36:13.231Z,99025.00
2023-02-19T13:38:46.973Z,99031.00
2023-02-19T13:41:33.348Z,99030.00
2023-02-19T13:44:09.249Z,99028.00
2023-02-19T13:46:45.261Z,99026.00
2023-02-19T13:49:35.385Z,99030.00
2023-02-19T13:52:43.455Z,99030.00
2023-02-19T13:55:49.481Z,99036.00
2023-02-19T13:59:00.863Z,99054.00
2023-02-19T14:01:54.195Z,99048.00
2023-02-19T14:04:51.310Z,99059.00
2023-02-19T14:07:20.657Z,99062.00
2023-02-19T14:09:50.606Z,99068.00
2023-02-19T14:12:22.592Z,99065.00
2023-02-19T14:14:54.383Z,99069.00
2023-02-19T14:17:45.019Z,99069.00
2023-02-19T14:20:42.930Z,99070.00
2023-02-19T14:23:25.362Z,99071.00
2023-02-19T14:26:05.468Z,99077.00
2023-02-19T14:28:47.764Z,99080.00
2023-02-19T14:31:28.435Z,99075.00
2023-02-19T14:34:25.950Z,99083.00
2023-02-19T14:37:01.268Z,99095.00
2023-02-19T14:39:42.050Z,99099.00
2023-02-19T14:42:16.578Z,99100.00
2023-02-19T14:44:59.268Z,99103.00
2023-02-19T14:47:35.558Z,99107.00
2023-02-19T14:50:16.385Z,99103.00
2023-02-19T14:52:56.517Z,99108.00
2023-02-19T14:55:41.309Z,99107.00
2023-02-19T14:58:21.425Z,99106.00
2023-02-19T15:00:50.766Z,99104.00
2023-02-19T15:03:40.353Z,99109.00
2023-02-19T15:06:13.737Z,99111.00
2023-02-19T15:08:50.639Z,99114.00
2023-02-19T15:11:32.183Z,99115.00
2023-02-19T15:14:09.384Z,99118.00
2023-02-19T15:16:39.065Z,99124.00
2023-02-19T15:19:11.767Z,99120.00
2023-02-19T15:21:48.192Z,99121.00
2023-02-19T15:24:20.551Z,99122.00
2023-02-19T15:26:55.186Z,99127.00
2023-02-19T15:29:29.068Z,99121.00
2023-02-19T15:32:03.309Z,99130.00
2023-02-19T15:34:34.345Z,99126.00
2023-02-19T15:37:14.437Z,99130.00
2023-02-19T15:39:49.463Z,99132.00
2023-02-19T15:42:25.436Z,99128.00
2023-02-19T15:45:18.372Z,99135.00
2023-02-19T15:48:13.916Z,99136.00
2023-02-19T15:50:50.097Z,99134.00
2023-02-19T15:53:32.317Z,99133.00
2023-02-19T15:56:16.469Z,99136.00
2023-02-19T15:59:00.195Z,99131.00
2023-02-19T16:01:34.032Z,99131.00
2023-02-19T16:04:03.944Z,99139.00
2023-02-19T16:06:51.337Z,99141.00
2023-02-19T16:09:32.050Z,99147.00
2023-02-19T16:12:21.938Z,99143.00
2023-02-19T16:14:52.110Z,99146.00
2023-02-19T16:17:28.844Z,99144.00
2023-02-19T16:20:04.647Z,99133.00
2023-02-19T16:22:43.847Z,99130.00
2023-02-19T16:25:41.926Z,99133.00
2023-02-19T16:28:28.475Z,99130.00
2023-02-19T16:31:04.513Z,99117.00
2023-02-19T16:33:50.258Z,99126.00
2023-02-19T16:36:39.023Z,99129.00
2023-02-19T16:39:12.405Z,99121.00
2023-02-19T16:41:48.011Z,99124.00
2023-02-19T16:44:22.976Z,99118.00
2023-02-19T16:46:55.432Z,99125.00
2023-02-19T16:49:25.943Z,99114.00
2023-02-19T16:51:55.724Z,99113.00
2023-02-19T16:54:24.814Z,99116.00
2023-02-19T16:56:53.956Z,99118.00
2023-02-19T16:59:23.216Z,99106.00
2023-02-19T17:01:52.345Z,99112.00
2023-02-19T17:04:21.680Z,99107.00
2023-02-19T17:06:51.857Z,99110.00
2023-02-19T17:09:20.967Z,99102.00
2023-02-19T17:11:50.258Z,99102.00
2023-02-19T17:14:20.339Z,99106.00
2023-02-19T17:16:49.695Z,99103.00
2023-02-19T17:19:21.468Z,99103.00
2023-02-19T17:21:50.829Z,99090.00
2023-02-19T17:24:19.953Z,99096.00
2023-02-19T17:26:49.169Z,99100.00
2023-02-19T17:29:19.483Z,99110.00
2023-02-19T17:31:48.744Z,99099.00
2023-02-19T17:34:17.872Z,99096.00
2023-02-19T17:36:49.652Z,99093.00
2023-02-19T17:39:19.155Z,99091.00
2023-02-19T17:41:48.299Z,99089.00
2023-02-19T17:44:17.728Z,99087.00
2023-02-19T17:46:49.394Z,99092.00
2023-02-19T17:49:18.706Z,99084.00
2023-02-19T17:51:47.800Z,99076.00
2023-02-19T17:54:16.897Z,99076.00
2023-02-19T17:56:48.067Z,99076.00
2023-02-19T17:59:18.354Z,99069.00
2023-02-19T18:01:47.524Z,99064.00
2023-02-19T18:04:16.769Z,99068.00
2023-02-19T18:06:45.868Z,99057.00
2023-02-19T18:09:16.214Z,99061.00
2023-02-19T18:11:48.510Z,99067.00
2023-02-19T18:14:18.280Z,99062.00
2023-02-19T18:16:51.787Z,99062.00
2023-02-19T18:19:21.064Z,99070.00
2023-02-19T18:21:50.387Z,99064.00
2023-02-19T18:24:19.765Z,99062.00
2023-02-19T18:26:48.848Z,99059.00
2023-02-19T18:29:19.472Z,99070.00
2023-02-19T18:31:48.681Z,99069.00
2023-02-19T18:34:20.840Z,99064.00
2023-02-19T18:36:51.183Z,99061.00
2023-02-19T18:39:20.375Z,99060.00
2023-02-19T18:41:51.713Z,99062.00
2023-02-19T18:44:26.262Z,99067.00
2023-02-19T18:46:55.418Z,99065.00
2023-02-19T18:49:28.664Z,99063.00
2023-02-19T18:52:00.200Z,99062.00
2023-02-19T18:54:31.132Z,99068.00
2023-02-19T18:57:05.409Z,99071.00
2023-02-19T18:59:34.675Z,99070.00
2023-02-19T19:02:05.996Z,99074.00
2023-02-19T19:04:35.444Z,99070.00
2023-02-19T19:07:07.126Z,99069.00
2023-02-19T19:09:37.555Z,99073.00
2023-02-19T19:12:07.344Z,99073.00
2023-02-19T19:14:36.675Z,99072.00
2023-02-19T19:17:06.510Z,99080.00
2023-02-19T19:19:35.783Z,99078.00
2023-02-19T19:22:04.938Z,99073.00
2023-02-19T19:24:34.080Z,99076.00
2023-02-19T19:27:03.215Z,99069.00
2023-02-19T19:29:32.376Z,99068.00
2023-02-19T19:32:01.610Z,99068.00
2023-02-19T19:34:30.861Z,99069.00
2023-02-19T19:36:59.992Z,99070.00
2023-02-19T19:39:29.125Z,99079.00
2023-02-19T19:41:58.952Z,99077.00
2023-02-19T19:44:28.105Z,99075.00
2023-02-19T19:46:58.135Z,99079.00
2023-02-19T19:49:27.383Z,99078.00
2023-02-19T19:51:58.733Z,99082.00
2023-02-19T19:54:28.218Z,99078.00
2023-02-19T19:56:57.489Z,99081.00
2023-02-19T19:59:26.959Z,99079.00
2023-02-19T20:01:59.079Z,99081.00
2023-02-19T20:04:28.572Z,99075.00
2023-02-19T20:07:01.038Z,99076.00
2023-02-19T20:09:30.450Z,99073.00
2023-02-19T20:11:59.563Z,99077.00
2023-02-19T20:14:29.163Z,99070.00
2023-02-19T20:16:58.452Z,99066.00
2023-02-19T20:19:28.028Z,99064.00
2023-02-19T20:21:57.199Z,99069.00
2023-02-19T20:24:32.046Z,99069.00
2023-02-19T20:27:03.550Z,99082.00
2023-02-19T20:29:35.788Z,99083.00
2023-02-19T20:32:05.143Z,99082.00
2023-02-19T20:34:34.385Z,99088.00
2023-02-19T20:37:03.614Z,99090.00
2023-02-19T20:39:36.183Z,99091.00
2023-02-19T20:42:06.893Z,99094.00
2023-02-19T20:44:36.121Z,99094.00
2023-02-19T20:47:05.417Z,99092.00
2023-02-19T20:49:35.463Z,99096.00
2023-02-19T20:52:08.584Z,99103.00
2023-02-19T20:54:39.281Z,99106.00
2023-02-19T20:57:08.488Z,99107.00
2023-02-19T20:59:39.603Z,99107.00
2023-02-19T21:02:20.317Z,99099.00
2023-02-19T21:04:49.733Z,99116.00
2023-02-19T21:07:19.290Z,99113.00
2023-02-19T21:09:48.470Z,99109.00
2023-02-19T21:12:17.949Z,99107.00
2023-02-19T21:14:48.573Z,99112.00
2023-02-19T21:17:17.847Z,99104.00
2023-02-19T21:19:50.211Z,99107.00
2023-02-19T21:22:19.564Z,99107.00
2023-02-19T21:24:53.978Z,99103.00
2023-02-19T21:27:23.177Z,99106.00
2023-02-19T21:29:52.427Z,99112.00
2023-02-19T21:32:21.720Z,99106.00
2023-02-19T21:34:50.916Z,99105.00
2023-02-19T21:37:20.040Z,99103.00
2023-02-19T21:39:50.006Z,99108.00
2023-02-19T21:42:19.179Z,99107.00
2023-02-19T21:44:48.632Z,99112.00
2023-02-19T21:47:17.766Z,99111.00
2023-02-19T21:49:46.931Z,99113.00
2023-02-19T21:52:16.099Z,99117.00
2023-02-19T21:54:45.703Z,99121.00
2023-02-19T21:57:14.740Z,99130.00
2023-02-19T21:59:43.865Z,99127.00
2023-02-19T22:02:13.408Z,99130.00
2023-02-19T22:04:42.576Z,99130.00
2023-02-19T22:07:11.719Z,99130.00
2023-02-19T22:09:40.904Z,99132.00
2023-02-19T22:12:10.055Z,99134.00
2023-02-19T22:14:39.258Z,99141.00
2023-02-19T22:17:08.497Z,99143.00
2023-02-19T22:19:37.732Z,99147.00
2023-02-19T22:22:07.234Z,99154.00
2023-02-19T22:24:36.604Z,99158.00
2023-02-19T22:27:06.168Z,99152.00
2023-02-19T22:29:35.811Z,99150.00
2023-02-19T22:32:05.193Z,99159.00
2023-02-19T22:34:34.488Z,99167.00
2023-02-19T22:37:03.690Z,99166.00
2023-02-19T22:39:32.910Z,99172.00
2023-02-19T22:42:02.313Z,99178.00
2023-02-19T22:44:31.666Z,99181.00
2023-02-19T22:47:00.903Z,99185.00
2023-02-19T22:49:30.067Z,99191.00
2023-02-19T22:52:09.301Z,99186.00
2023-02-19T22:54:39.424Z,99197.00
2023-02-19T22:57:08.778Z,99207.00
2023-02-19T22:59:37.958Z,99205.00
2023-02-19T23:02:07.212Z,99212.00
2023-02-19T23:04:36.509Z,99211.00
2023-02-19T23:07:07.886Z,99215.00
2023-02-19T23:09:37.361Z,99208.00
2023-02-19T23:12:12.786Z,99205.00
2023-02-19T23:14:42.363Z,99212.00
2023-02-19T23:17:11.557Z,99219.00
2023-02-19T23:19:40.750Z,99219.00
2023-02-19T23:22:10.206Z,99223.00
2023-02-19T23:24:39.430Z,99228.00
2023-02-19T23:27:08.607Z,99229.00
2023-02-19T23:29:37.800Z,99225.00
2023-02-19T23:32:07.561Z,99228.00
2023-02-19T23:34:36.837Z,99228.00
2023-02-19T23:37:06.513Z,99231.00
2023-02-19T23:39:35.751Z,99229.00
2023-02-19T23:42:05.088Z,99230.00
2023-02-19T23:44:34.839Z,99232.00
2023-02-19T23:47:04.039Z,99232.00
2023-02-19T23:49:33.303Z,99229.00
2023-02-19T23:52:02.463Z,99239.00
2023-02-19T23:54:32.348Z,99246.00
2023-02-19T23:57:01.615Z,99251.00
2023-02-19T23:59:30.813Z,99249.00
